Pomeroy, Iowa
Current Conditions -  °F | °C
As of 7:35 PM on Monday 20 Oct 2014 (Local Time) from KFOD Reporting Station
Clear Clear  
Wind Chill: 55°   Ceiling: Unl
Heat Index: 55°   Visibility: 10mi
Dew Point: 39°   Wind: 3mph
Humidity: 54%   Direction: 350°N
Pressure: 30.03"   Gusts: NA
Location:  42.55°N, 94.68°W
Report Text: KFOD 210035Z AUTO 35003KT 10SM CLR 13/04 A3003 RMK AO1
Loading
Personal Weather Stations






























Interactive Weather Map
Tropical Storm Tracking
New forecast layout! Learn more

10-Day Weather Forecast

Advertisements
Track Severe Weather on mobile